sensor_id;sensor_type;location;lat;lon;timestamp;P1;P2;P0
61592;PMS5003;70568;51.378;-1.342;2024-03-08T00:02:09;76;74;
61592;PMS5003;70568;51.378;-1.342;2024-03-08T00:04:36;77;75;
61592;PMS5003;70568;51.378;-1.342;2024-03-08T00:07:03;74;71;
61592;PMS5003;70568;51.378;-1.342;2024-03-08T00:09:30;81;78;
61592;PMS5003;70568;51.378;-1.342;2024-03-08T00:11:57;77;68;
61592;PMS5003;70568;51.378;-1.342;2024-03-08T00:14:24;70;67;
61592;PMS5003;70568;51.378;-1.342;2024-03-08T00:16:51;84;78;
61592;PMS5003;70568;51.378;-1.342;2024-03-08T00:19:18;83;75;
61592;PMS5003;70568;51.378;-1.342;2024-03-08T00:21:44;82;76;
61592;PMS5003;70568;51.378;-1.342;2024-03-08T00:24:11;82;76;
61592;PMS5003;70568;51.378;-1.342;2024-03-08T00:26:38;84;81;
61592;PMS5003;70568;51.378;-1.342;2024-03-08T00:29:04;75;70;
61592;PMS5003;70568;51.378;-1.342;2024-03-08T00:31:30;86;75;
61592;PMS5003;70568;51.378;-1.342;2024-03-08T00:33:57;83;75;
61592;PMS5003;70568;51.378;-1.342;2024-03-08T00:36:24;74;66;
61592;PMS5003;70568;51.378;-1.342;2024-03-08T00:38:51;83;75;
61592;PMS5003;70568;51.378;-1.342;2024-03-08T00:41:17;80;76;
61592;PMS5003;70568;51.378;-1.342;2024-03-08T00:43:44;82;78;
61592;PMS5003;70568;51.378;-1.342;2024-03-08T00:46:11;80;71;
61592;PMS5003;70568;51.378;-1.342;2024-03-08T00:48:38;81;77;
61592;PMS5003;70568;51.378;-1.342;2024-03-08T00:51:05;77;76;
61592;PMS5003;70568;51.378;-1.342;2024-03-08T00:53:31;82;75;
61592;PMS5003;70568;51.378;-1.342;2024-03-08T00:55:58;87;80;
61592;PMS5003;70568;51.378;-1.342;2024-03-08T00:58:25;78;72;
61592;PMS5003;70568;51.378;-1.342;2024-03-08T01:00:52;81;76;
61592;PMS5003;70568;51.378;-1.342;2024-03-08T01:03:18;75;73;
61592;PMS5003;70568;51.378;-1.342;2024-03-08T01:05:45;77;70;
61592;PMS5003;70568;51.378;-1.342;2024-03-08T01:08:12;81;71;
61592;PMS5003;70568;51.378;-1.342;2024-03-08T01:10:39;74;71;
61592;PMS5003;70568;51.378;-1.342;2024-03-08T01:13:05;86;80;
61592;PMS5003;70568;51.378;-1.342;2024-03-08T01:15:32;76;73;
61592;PMS5003;70568;51.378;-1.342;2024-03-08T01:18:00;78;74;
61592;PMS5003;70568;51.378;-1.342;2024-03-08T01:20:28;88;80;
61592;PMS5003;70568;51.378;-1.342;2024-03-08T01:22:55;87;77;
61592;PMS5003;70568;51.378;-1.342;2024-03-08T01:25:22;80;74;
61592;PMS5003;70568;51.378;-1.342;2024-03-08T01:27:48;81;73;
61592;PMS5003;70568;51.378;-1.342;2024-03-08T01:30:15;83;76;
61592;PMS5003;70568;51.378;-1.342;2024-03-08T01:32:42;81;75;
61592;PMS5003;70568;51.378;-1.342;2024-03-08T01:35:10;83;77;
61592;PMS5003;70568;51.378;-1.342;2024-03-08T01:37:37;85;76;
61592;PMS5003;70568;51.378;-1.342;2024-03-08T01:40:04;90;84;
61592;PMS5003;70568;51.378;-1.342;2024-03-08T01:42:33;85;80;
61592;PMS5003;70568;51.378;-1.342;2024-03-08T01:45:01;83;78;
61592;PMS5003;70568;51.378;-1.342;2024-03-08T01:47:29;85;76;
61592;PMS5003;70568;51.378;-1.342;2024-03-08T01:49:55;92;83;
61592;PMS5003;70568;51.378;-1.342;2024-03-08T01:52:22;93;83;
61592;PMS5003;70568;51.378;-1.342;2024-03-08T01:54:49;90;86;
61592;PMS5003;70568;51.378;-1.342;2024-03-08T01:57:16;93;81;
61592;PMS5003;70568;51.378;-1.342;2024-03-08T01:59:43;93;82;
61592;PMS5003;70568;51.378;-1.342;2024-03-08T02:02:10;89;84;
61592;PMS5003;70568;51.378;-1.342;2024-03-08T02:04:41;85;79;
61592;PMS5003;70568;51.378;-1.342;2024-03-08T02:07:08;92;83;
61592;PMS5003;70568;51.378;-1.342;2024-03-08T02:09:34;89;83;
61592;PMS5003;70568;51.378;-1.342;2024-03-08T02:12:02;94;87;
61592;PMS5003;70568;51.378;-1.342;2024-03-08T02:14:29;92;84;
61592;PMS5003;70568;51.378;-1.342;2024-03-08T02:16:59;88;82;
61592;PMS5003;70568;51.378;-1.342;2024-03-08T02:19:27;86;82;
61592;PMS5003;70568;51.378;-1.342;2024-03-08T02:21:54;90;84;
61592;PMS5003;70568;51.378;-1.342;2024-03-08T02:24:22;88;83;
61592;PMS5003;70568;51.378;-1.342;2024-03-08T02:26:49;100;87;
61592;PMS5003;70568;51.378;-1.342;2024-03-08T02:29:16;95;88;
61592;PMS5003;70568;51.378;-1.342;2024-03-08T02:31:44;93;89;
61592;PMS5003;70568;51.378;-1.342;2024-03-08T02:34:11;90;81;
61592;PMS5003;70568;51.378;-1.342;2024-03-08T02:36:37;99;86;
61592;PMS5003;70568;51.378;-1.342;2024-03-08T02:39:04;94;88;
61592;PMS5003;70568;51.378;-1.342;2024-03-08T02:41:31;87;82;
61592;PMS5003;70568;51.378;-1.342;2024-03-08T02:43:58;102;91;
61592;PMS5003;70568;51.378;-1.342;2024-03-08T02:46:24;86;83;
61592;PMS5003;70568;51.378;-1.342;2024-03-08T02:48:51;98;92;
61592;PMS5003;70568;51.378;-1.342;2024-03-08T02:51:19;94;90;
61592;PMS5003;70568;51.378;-1.342;2024-03-08T02:53:46;94;86;
61592;PMS5003;70568;51.378;-1.342;2024-03-08T02:56:13;95;84;
61592;PMS5003;70568;51.378;-1.342;2024-03-08T02:58:39;91;82;
61592;PMS5003;70568;51.378;-1.342;2024-03-08T03:01:06;97;92;
61592;PMS5003;70568;51.378;-1.342;2024-03-08T03:03:33;84;79;
61592;PMS5003;70568;51.378;-1.342;2024-03-08T03:06:00;100;89;
61592;PMS5003;70568;51.378;-1.342;2024-03-08T03:08:28;94;88;
61592;PMS5003;70568;51.378;-1.342;2024-03-08T03:10:55;98;88;
61592;PMS5003;70568;51.378;-1.342;2024-03-08T03:13:22;94;88;
61592;PMS5003;70568;51.378;-1.342;2024-03-08T03:15:49;96;87;
61592;PMS5003;70568;51.378;-1.342;2024-03-08T03:18:16;90;84;
61592;PMS5003;70568;51.378;-1.342;2024-03-08T03:20:42;89;84;
61592;PMS5003;70568;51.378;-1.342;2024-03-08T03:23:09;105;102;
61592;PMS5003;70568;51.378;-1.342;2024-03-08T03:25:36;99;90;
61592;PMS5003;70568;51.378;-1.342;2024-03-08T03:28:03;100;92;
61592;PMS5003;70568;51.378;-1.342;2024-03-08T03:30:31;104;93;
61592;PMS5003;70568;51.378;-1.342;2024-03-08T03:32:58;97;91;
61592;PMS5003;70568;51.378;-1.342;2024-03-08T03:35:27;91;84;
61592;PMS5003;70568;51.378;-1.342;2024-03-08T03:37:55;96;89;
61592;PMS5003;70568;51.378;-1.342;2024-03-08T03:40:21;88;87;
61592;PMS5003;70568;51.378;-1.342;2024-03-08T03:42:48;95;93;
61592;PMS5003;70568;51.378;-1.342;2024-03-08T03:45:14;87;79;
61592;PMS5003;70568;51.378;-1.342;2024-03-08T03:47:42;89;83;
61592;PMS5003;70568;51.378;-1.342;2024-03-08T03:50:09;89;87;
61592;PMS5003;70568;51.378;-1.342;2024-03-08T03:52:37;99;86;
61592;PMS5003;70568;51.378;-1.342;2024-03-08T03:55:04;93;87;
61592;PMS5003;70568;51.378;-1.342;2024-03-08T03:57:31;88;85;
61592;PMS5003;70568;51.378;-1.342;2024-03-08T03:59:59;91;80;
61592;PMS5003;70568;51.378;-1.342;2024-03-08T04:02:26;108;97;
61592;PMS5003;70568;51.378;-1.342;2024-03-08T04:04:54;95;89;
61592;PMS5003;70568;51.378;-1.342;2024-03-08T04:07:21;91;87;
61592;PMS5003;70568;51.378;-1.342;2024-03-08T04:09:48;98;92;
61592;PMS5003;70568;51.378;-1.342;2024-03-08T04:12:14;98;89;
61592;PMS5003;70568;51.378;-1.342;2024-03-08T04:14:41;99;88;
61592;PMS5003;70568;51.378;-1.342;2024-03-08T04:17:08;90;86;
61592;PMS5003;70568;51.378;-1.342;2024-03-08T04:19:36;90;87;
61592;PMS5003;70568;51.378;-1.342;2024-03-08T04:22:02;87;81;
61592;PMS5003;70568;51.378;-1.342;2024-03-08T04:24:29;90;80;
61592;PMS5003;70568;51.378;-1.342;2024-03-08T04:26:56;93;86;
61592;PMS5003;70568;51.378;-1.342;2024-03-08T04:29:22;84;78;
61592;PMS5003;70568;51.378;-1.342;2024-03-08T04:31:49;99;81;
61592;PMS5003;70568;51.378;-1.342;2024-03-08T04:34:16;88;79;
61592;PMS5003;70568;51.378;-1.342;2024-03-08T04:36:43;87;82;
61592;PMS5003;70568;51.378;-1.342;2024-03-08T04:39:10;83;78;
61592;PMS5003;70568;51.378;-1.342;2024-03-08T04:41:38;90;80;
61592;PMS5003;70568;51.378;-1.342;2024-03-08T04:44:04;86;79;
61592;PMS5003;70568;51.378;-1.342;2024-03-08T04:46:32;91;81;
61592;PMS5003;70568;51.378;-1.342;2024-03-08T04:48:59;89;78;
61592;PMS5003;70568;51.378;-1.342;2024-03-08T04:51:26;86;81;
61592;PMS5003;70568;51.378;-1.342;2024-03-08T04:53:52;88;83;
61592;PMS5003;70568;51.378;-1.342;2024-03-08T04:56:19;93;83;
61592;PMS5003;70568;51.378;-1.342;2024-03-08T04:58:46;86;85;
61592;PMS5003;70568;51.378;-1.342;2024-03-08T05:01:13;93;81;
61592;PMS5003;70568;51.378;-1.342;2024-03-08T05:03:40;85;80;
61592;PMS5003;70568;51.378;-1.342;2024-03-08T05:06:07;85;81;
61592;PMS5003;70568;51.378;-1.342;2024-03-08T05:08:34;82;78;
61592;PMS5003;70568;51.378;-1.342;2024-03-08T05:11:01;87;79;
61592;PMS5003;70568;51.378;-1.342;2024-03-08T05:13:29;83;77;
61592;PMS5003;70568;51.378;-1.342;2024-03-08T05:15:56;86;80;
61592;PMS5003;70568;51.378;-1.342;2024-03-08T05:18:23;89;83;
61592;PMS5003;70568;51.378;-1.342;2024-03-08T05:20:49;88;82;
61592;PMS5003;70568;51.378;-1.342;2024-03-08T05:23:16;94;85;
61592;PMS5003;70568;51.378;-1.342;2024-03-08T05:25:43;88;82;
61592;PMS5003;70568;51.378;-1.342;2024-03-08T05:28:10;82;74;
61592;PMS5003;70568;51.378;-1.342;2024-03-08T05:30:37;89;79;
61592;PMS5003;70568;51.378;-1.342;2024-03-08T05:33:05;91;81;
61592;PMS5003;70568;51.378;-1.342;2024-03-08T05:35:31;87;75;
61592;PMS5003;70568;51.378;-1.342;2024-03-08T05:37:58;87;80;
61592;PMS5003;70568;51.378;-1.342;2024-03-08T05:40:25;76;71;
61592;PMS5003;70568;51.378;-1.342;2024-03-08T05:42:52;88;78;
61592;PMS5003;70568;51.378;-1.342;2024-03-08T05:45:19;89;83;
61592;PMS5003;70568;51.378;-1.342;2024-03-08T05:47:45;74;71;
61592;PMS5003;70568;51.378;-1.342;2024-03-08T05:50:12;84;79;
61592;PMS5003;70568;51.378;-1.342;2024-03-08T05:52:39;87;78;
61592;PMS5003;70568;51.378;-1.342;2024-03-08T05:55:07;84;77;
61592;PMS5003;70568;51.378;-1.342;2024-03-08T05:57:34;74;72;
61592;PMS5003;70568;51.378;-1.342;2024-03-08T06:00:02;90;81;
61592;PMS5003;70568;51.378;-1.342;2024-03-08T06:02:30;84;79;
61592;PMS5003;70568;51.378;-1.342;2024-03-08T06:04:56;90;79;
61592;PMS5003;70568;51.378;-1.342;2024-03-08T06:07:23;75;70;
61592;PMS5003;70568;51.378;-1.342;2024-03-08T06:09:50;83;75;
61592;PMS5003;70568;51.378;-1.342;2024-03-08T06:12:17;77;72;
61592;PMS5003;70568;51.378;-1.342;2024-03-08T06:14:44;88;80;
61592;PMS5003;70568;51.378;-1.342;2024-03-08T06:17:11;86;77;
61592;PMS5003;70568;51.378;-1.342;2024-03-08T06:19:37;78;71;
61592;PMS5003;70568;51.378;-1.342;2024-03-08T06:22:04;77;75;
61592;PMS5003;70568;51.378;-1.342;2024-03-08T06:24:30;88;82;
61592;PMS5003;70568;51.378;-1.342;2024-03-08T06:26:57;72;68;
61592;PMS5003;70568;51.378;-1.342;2024-03-08T06:29:24;93;81;
61592;PMS5003;70568;51.378;-1.342;2024-03-08T06:31:51;84;74;
61592;PMS5003;70568;51.378;-1.342;2024-03-08T06:34:18;83;79;
61592;PMS5003;70568;51.378;-1.342;2024-03-08T06:36:45;80;75;
61592;PMS5003;70568;51.378;-1.342;2024-03-08T06:39:12;82;78;
61592;PMS5003;70568;51.378;-1.342;2024-03-08T06:41:39;79;75;
61592;PMS5003;70568;51.378;-1.342;2024-03-08T06:44:06;90;82;
61592;PMS5003;70568;51.378;-1.342;2024-03-08T06:46:33;86;74;
61592;PMS5003;70568;51.378;-1.342;2024-03-08T06:49:00;85;78;
61592;PMS5003;70568;51.378;-1.342;2024-03-08T06:51:28;82;76;
61592;PMS5003;70568;51.378;-1.342;2024-03-08T06:53:55;87;76;
61592;PMS5003;70568;51.378;-1.342;2024-03-08T06:56:22;82;76;
61592;PMS5003;70568;51.378;-1.342;2024-03-08T06:58:49;86;79;
61592;PMS5003;70568;51.378;-1.342;2024-03-08T07:01:16;90;78;
61592;PMS5003;70568;51.378;-1.342;2024-03-08T07:03:43;82;75;
61592;PMS5003;70568;51.378;-1.342;2024-03-08T07:06:10;83;78;
61592;PMS5003;70568;51.378;-1.342;2024-03-08T07:08:37;93;85;
61592;PMS5003;70568;51.378;-1.342;2024-03-08T07:11:04;92;83;
61592;PMS5003;70568;51.378;-1.342;2024-03-08T07:13:31;96;82;
61592;PMS5003;70568;51.378;-1.342;2024-03-08T07:15:58;88;78;
61592;PMS5003;70568;51.378;-1.342;2024-03-08T07:18:25;86;82;
61592;PMS5003;70568;51.378;-1.342;2024-03-08T07:20:52;82;79;
61592;PMS5003;70568;51.378;-1.342;2024-03-08T07:23:19;93;81;
61592;PMS5003;70568;51.378;-1.342;2024-03-08T07:25:46;97;87;
61592;PMS5003;70568;51.378;-1.342;2024-03-08T07:28:14;86;82;
61592;PMS5003;70568;51.378;-1.342;2024-03-08T07:30:41;82;75;
61592;PMS5003;70568;51.378;-1.342;2024-03-08T07:33:08;88;79;
61592;PMS5003;70568;51.378;-1.342;2024-03-08T07:35:35;79;76;
61592;PMS5003;70568;51.378;-1.342;2024-03-08T07:38:02;83;78;
61592;PMS5003;70568;51.378;-1.342;2024-03-08T07:40:30;90;82;
61592;PMS5003;70568;51.378;-1.342;2024-03-08T07:42:56;88;79;
61592;PMS5003;70568;51.378;-1.342;2024-03-08T07:45:23;84;80;
61592;PMS5003;70568;51.378;-1.342;2024-03-08T07:47:50;78;70;
61592;PMS5003;70568;51.378;-1.342;2024-03-08T07:50:17;90;81;
61592;PMS5003;70568;51.378;-1.342;2024-03-08T07:52:44;95;85;
61592;PMS5003;70568;51.378;-1.342;2024-03-08T07:55:11;83;77;
61592;PMS5003;70568;51.378;-1.342;2024-03-08T07:57:37;83;80;
61592;PMS5003;70568;51.378;-1.342;2024-03-08T08:00:05;89;84;
61592;PMS5003;70568;51.378;-1.342;2024-03-08T08:02:32;88;81;
61592;PMS5003;70568;51.378;-1.342;2024-03-08T08:05:00;89;83;
61592;PMS5003;70568;51.378;-1.342;2024-03-08T08:07:28;89;85;
61592;PMS5003;70568;51.378;-1.342;2024-03-08T08:09:54;83;77;
61592;PMS5003;70568;51.378;-1.342;2024-03-08T08:12:21;90;88;
61592;PMS5003;70568;51.378;-1.342;2024-03-08T08:14:48;81;75;
61592;PMS5003;70568;51.378;-1.342;2024-03-08T08:17:14;88;79;
61592;PMS5003;70568;51.378;-1.342;2024-03-08T08:19:41;81;76;
61592;PMS5003;70568;51.378;-1.342;2024-03-08T08:22:08;94;89;
61592;PMS5003;70568;51.378;-1.342;2024-03-08T08:24:35;86;78;
61592;PMS5003;70568;51.378;-1.342;2024-03-08T08:27:02;99;89;
61592;PMS5003;70568;51.378;-1.342;2024-03-08T08:29:29;89;77;
61592;PMS5003;70568;51.378;-1.342;2024-03-08T08:31:57;85;80;
61592;PMS5003;70568;51.378;-1.342;2024-03-08T08:34:24;88;80;
61592;PMS5003;70568;51.378;-1.342;2024-03-08T08:36:50;91;85;
61592;PMS5003;70568;51.378;-1.342;2024-03-08T08:39:17;90;85;
61592;PMS5003;70568;51.378;-1.342;2024-03-08T08:41:44;84;78;
61592;PMS5003;70568;51.378;-1.342;2024-03-08T08:44:11;81;78;
61592;PMS5003;70568;51.378;-1.342;2024-03-08T08:46:38;86;76;
61592;PMS5003;70568;51.378;-1.342;2024-03-08T08:49:05;87;81;
61592;PMS5003;70568;51.378;-1.342;2024-03-08T08:51:31;86;80;
61592;PMS5003;70568;51.378;-1.342;2024-03-08T08:53:58;88;80;
61592;PMS5003;70568;51.378;-1.342;2024-03-08T08:56:25;85;81;
61592;PMS5003;70568;51.378;-1.342;2024-03-08T08:58:51;83;78;
61592;PMS5003;70568;51.378;-1.342;2024-03-08T09:01:18;80;76;
61592;PMS5003;70568;51.378;-1.342;2024-03-08T09:03:44;82;69;
61592;PMS5003;70568;51.378;-1.342;2024-03-08T09:06:11;86;80;
61592;PMS5003;70568;51.378;-1.342;2024-03-08T09:08:38;78;70;
61592;PMS5003;70568;51.378;-1.342;2024-03-08T09:11:06;76;71;
61592;PMS5003;70568;51.378;-1.342;2024-03-08T09:13:32;83;75;
61592;PMS5003;70568;51.378;-1.342;2024-03-08T09:15:59;78;70;
61592;PMS5003;70568;51.378;-1.342;2024-03-08T09:18:27;76;72;
61592;PMS5003;70568;51.378;-1.342;2024-03-08T09:20:54;71;66;
61592;PMS5003;70568;51.378;-1.342;2024-03-08T09:23:21;76;66;
61592;PMS5003;70568;51.378;-1.342;2024-03-08T09:25:48;73;71;
61592;PMS5003;70568;51.378;-1.342;2024-03-08T09:28:14;75;66;
61592;PMS5003;70568;51.378;-1.342;2024-03-08T09:30:41;72;67;
61592;PMS5003;70568;51.378;-1.342;2024-03-08T09:33:08;74;68;
61592;PMS5003;70568;51.378;-1.342;2024-03-08T09:35:34;73;67;
61592;PMS5003;70568;51.378;-1.342;2024-03-08T09:38:02;66;62;
61592;PMS5003;70568;51.378;-1.342;2024-03-08T09:40:29;75;63;
61592;PMS5003;70568;51.378;-1.342;2024-03-08T09:42:56;62;57;
61592;PMS5003;70568;51.378;-1.342;2024-03-08T09:45:23;66;62;
61592;PMS5003;70568;51.378;-1.342;2024-03-08T09:47:52;64;59;
61592;PMS5003;70568;51.378;-1.342;2024-03-08T09:50:19;73;65;
61592;PMS5003;70568;51.378;-1.342;2024-03-08T09:52:46;71;66;
61592;PMS5003;70568;51.378;-1.342;2024-03-08T09:55:15;72;63;
61592;PMS5003;70568;51.378;-1.342;2024-03-08T09:57:43;67;60;
61592;PMS5003;70568;51.378;-1.342;2024-03-08T10:00:10;69;64;
61592;PMS5003;70568;51.378;-1.342;2024-03-08T10:02:40;58;56;
61592;PMS5003;70568;51.378;-1.342;2024-03-08T10:05:07;64;57;
61592;PMS5003;70568;51.378;-1.342;2024-03-08T10:07:35;69;63;
61592;PMS5003;70568;51.378;-1.342;2024-03-08T10:10:03;71;64;
61592;PMS5003;70568;51.378;-1.342;2024-03-08T10:12:30;64;58;
61592;PMS5003;70568;51.378;-1.342;2024-03-08T10:14:58;64;62;
61592;PMS5003;70568;51.378;-1.342;2024-03-08T10:17:26;66;61;
61592;PMS5003;70568;51.378;-1.342;2024-03-08T10:19:52;61;57;
61592;PMS5003;70568;51.378;-1.342;2024-03-08T10:22:19;54;53;
61592;PMS5003;70568;51.378;-1.342;2024-03-08T10:24:46;62;58;
61592;PMS5003;70568;51.378;-1.342;2024-03-08T10:27:14;60;56;
61592;PMS5003;70568;51.378;-1.342;2024-03-08T10:29:46;54;52;
61592;PMS5003;70568;51.378;-1.342;2024-03-08T10:32:13;55;53;
61592;PMS5003;70568;51.378;-1.342;2024-03-08T10:34:40;53;51;
61592;PMS5003;70568;51.378;-1.342;2024-03-08T10:37:07;67;61;
61592;PMS5003;70568;51.378;-1.342;2024-03-08T10:39:41;58;53;
61592;PMS5003;70568;51.378;-1.342;2024-03-08T10:42:16;62;58;
61592;PMS5003;70568;51.378;-1.342;2024-03-08T10:44:49;65;60;
61592;PMS5003;70568;51.378;-1.342;2024-03-08T10:47:27;64;58;
61592;PMS5003;70568;51.378;-1.342;2024-03-08T10:49:59;66;58;
61592;PMS5003;70568;51.378;-1.342;2024-03-08T10:52:35;58;50;
61592;PMS5003;70568;51.378;-1.342;2024-03-08T10:55:02;52;49;
61592;PMS5003;70568;51.378;-1.342;2024-03-08T10:57:31;49;46;
61592;PMS5003;70568;51.378;-1.342;2024-03-08T10:59:58;54;51;
61592;PMS5003;70568;51.378;-1.342;2024-03-08T11:02:25;51;47;
61592;PMS5003;70568;51.378;-1.342;2024-03-08T11:04:52;47;46;
61592;PMS5003;70568;51.378;-1.342;2024-03-08T11:07:19;48;46;
61592;PMS5003;70568;51.378;-1.342;2024-03-08T11:09:47;46;43;
61592;PMS5003;70568;51.378;-1.342;2024-03-08T11:12:18;55;52;
61592;PMS5003;70568;51.378;-1.342;2024-03-08T11:14:47;52;45;
61592;PMS5003;70568;51.378;-1.342;2024-03-08T11:17:15;54;50;
61592;PMS5003;70568;51.378;-1.342;2024-03-08T11:19:46;55;50;
61592;PMS5003;70568;51.378;-1.342;2024-03-08T11:22:20;50;45;
61592;PMS5003;70568;51.378;-1.342;2024-03-08T11:24:47;52;48;
61592;PMS5003;70568;51.378;-1.342;2024-03-08T11:27:14;48;48;
61592;PMS5003;70568;51.378;-1.342;2024-03-08T11:29:41;45;42;
61592;PMS5003;70568;51.378;-1.342;2024-03-08T11:32:09;48;44;
61592;PMS5003;70568;51.378;-1.342;2024-03-08T11:34:37;50;48;
61592;PMS5003;70568;51.378;-1.342;2024-03-08T11:37:05;49;45;
61592;PMS5003;70568;51.378;-1.342;2024-03-08T11:39:32;43;42;
61592;PMS5003;70568;51.378;-1.342;2024-03-08T11:41:59;49;44;
61592;PMS5003;70568;51.378;-1.342;2024-03-08T11:44:26;52;51;
61592;PMS5003;70568;51.378;-1.342;2024-03-08T11:46:53;47;43;
61592;PMS5003;70568;51.378;-1.342;2024-03-08T11:49:20;40;38;
61592;PMS5003;70568;51.378;-1.342;2024-03-08T11:51:50;47;43;
61592;PMS5003;70568;51.378;-1.342;2024-03-08T11:54:18;49;45;
61592;PMS5003;70568;51.378;-1.342;2024-03-08T11:56:46;43;41;
61592;PMS5003;70568;51.378;-1.342;2024-03-08T11:59:13;52;51;
61592;PMS5003;70568;51.378;-1.342;2024-03-08T12:01:40;49;46;
61592;PMS5003;70568;51.378;-1.342;2024-03-08T12:04:11;48;44;
61592;PMS5003;70568;51.378;-1.342;2024-03-08T12:06:39;49;47;
61592;PMS5003;70568;51.378;-1.342;2024-03-08T12:09:08;48;42;
61592;PMS5003;70568;51.378;-1.342;2024-03-08T12:11:35;45;42;
61592;PMS5003;70568;51.378;-1.342;2024-03-08T12:14:03;41;38;
61592;PMS5003;70568;51.378;-1.342;2024-03-08T12:16:30;51;45;
61592;PMS5003;70568;51.378;-1.342;2024-03-08T12:18:57;48;45;
61592;PMS5003;70568;51.378;-1.342;2024-03-08T12:21:26;40;39;
61592;PMS5003;70568;51.378;-1.342;2024-03-08T12:24:03;50;47;
61592;PMS5003;70568;51.378;-1.342;2024-03-08T12:26:31;53;48;
61592;PMS5003;70568;51.378;-1.342;2024-03-08T12:29:14;47;46;
61592;PMS5003;70568;51.378;-1.342;2024-03-08T12:31:42;49;47;
61592;PMS5003;70568;51.378;-1.342;2024-03-08T12:34:09;49;46;
61592;PMS5003;70568;51.378;-1.342;2024-03-08T12:36:36;50;47;
61592;PMS5003;70568;51.378;-1.342;2024-03-08T12:39:04;51;48;
61592;PMS5003;70568;51.378;-1.342;2024-03-08T12:41:33;46;41;
61592;PMS5003;70568;51.378;-1.342;2024-03-08T12:44:05;48;46;
61592;PMS5003;70568;51.378;-1.342;2024-03-08T12:46:33;40;40;
61592;PMS5003;70568;51.378;-1.342;2024-03-08T12:49:00;46;45;
61592;PMS5003;70568;51.378;-1.342;2024-03-08T12:51:28;42;41;
61592;PMS5003;70568;51.378;-1.342;2024-03-08T12:53:56;45;43;
61592;PMS5003;70568;51.378;-1.342;2024-03-08T12:56:28;47;43;
61592;PMS5003;70568;51.378;-1.342;2024-03-08T12:58:56;42;39;
61592;PMS5003;70568;51.378;-1.342;2024-03-08T13:01:23;39;38;
61592;PMS5003;70568;51.378;-1.342;2024-03-08T13:03:50;50;48;
61592;PMS5003;70568;51.378;-1.342;2024-03-08T13:06:17;47;45;
61592;PMS5003;70568;51.378;-1.342;2024-03-08T13:08:44;42;42;
61592;PMS5003;70568;51.378;-1.342;2024-03-08T13:11:11;44;43;
61592;PMS5003;70568;51.378;-1.342;2024-03-08T13:13:38;42;41;
61592;PMS5003;70568;51.378;-1.342;2024-03-08T13:16:05;46;43;
61592;PMS5003;70568;51.378;-1.342;2024-03-08T13:18:32;41;41;
61592;PMS5003;70568;51.378;-1.342;2024-03-08T13:20:59;39;37;
61592;PMS5003;70568;51.378;-1.342;2024-03-08T13:23:26;39;38;
61592;PMS5003;70568;51.378;-1.342;2024-03-08T13:25:53;41;39;
61592;PMS5003;70568;51.378;-1.342;2024-03-08T13:28:20;46;44;
61592;PMS5003;70568;51.378;-1.342;2024-03-08T13:30:47;48;43;
61592;PMS5003;70568;51.378;-1.342;2024-03-08T13:33:13;48;44;
61592;PMS5003;70568;51.378;-1.342;2024-03-08T13:35:41;39;39;
61592;PMS5003;70568;51.378;-1.342;2024-03-08T13:38:07;40;38;
61592;PMS5003;70568;51.378;-1.342;2024-03-08T13:40:34;39;39;
61592;PMS5003;70568;51.378;-1.342;2024-03-08T13:43:02;40;37;
61592;PMS5003;70568;51.378;-1.342;2024-03-08T13:45:29;42;40;
61592;PMS5003;70568;51.378;-1.342;2024-03-08T13:47:56;43;42;
61592;PMS5003;70568;51.378;-1.342;2024-03-08T13:50:23;43;38;
61592;PMS5003;70568;51.378;-1.342;2024-03-08T13:52:50;42;40;
61592;PMS5003;70568;51.378;-1.342;2024-03-08T13:55:17;44;42;
61592;PMS5003;70568;51.378;-1.342;2024-03-08T13:57:44;34;34;
61592;PMS5003;70568;51.378;-1.342;2024-03-08T14:00:12;44;42;
61592;PMS5003;70568;51.378;-1.342;2024-03-08T14:02:39;43;42;
61592;PMS5003;70568;51.378;-1.342;2024-03-08T14:05:07;44;42;
61592;PMS5003;70568;51.378;-1.342;2024-03-08T14:07:34;38;38;
61592;PMS5003;70568;51.378;-1.342;2024-03-08T14:10:01;46;44;
61592;PMS5003;70568;51.378;-1.342;2024-03-08T14:12:28;39;36;
61592;PMS5003;70568;51.378;-1.342;2024-03-08T14:14:55;35;35;
61592;PMS5003;70568;51.378;-1.342;2024-03-08T14:17:22;36;36;
61592;PMS5003;70568;51.378;-1.342;2024-03-08T14:19:49;38;36;
61592;PMS5003;70568;51.378;-1.342;2024-03-08T14:22:16;33;32;
61592;PMS5003;70568;51.378;-1.342;2024-03-08T14:24:43;39;38;
61592;PMS5003;70568;51.378;-1.342;2024-03-08T14:27:10;39;35;
61592;PMS5003;70568;51.378;-1.342;2024-03-08T14:29:36;39;35;
61592;PMS5003;70568;51.378;-1.342;2024-03-08T14:32:03;33;32;
61592;PMS5003;70568;51.378;-1.342;2024-03-08T14:34:30;31;31;
61592;PMS5003;70568;51.378;-1.342;2024-03-08T14:36:57;43;42;
61592;PMS5003;70568;51.378;-1.342;2024-03-08T14:39:23;42;40;
61592;PMS5003;70568;51.378;-1.342;2024-03-08T14:41:50;36;35;
61592;PMS5003;70568;51.378;-1.342;2024-03-08T14:44:17;41;40;
61592;PMS5003;70568;51.378;-1.342;2024-03-08T14:46:44;39;37;
61592;PMS5003;70568;51.378;-1.342;2024-03-08T14:49:10;35;35;
61592;PMS5003;70568;51.378;-1.342;2024-03-08T14:51:38;44;41;
61592;PMS5003;70568;51.378;-1.342;2024-03-08T14:54:04;37;34;
61592;PMS5003;70568;51.378;-1.342;2024-03-08T14:56:31;49;47;
61592;PMS5003;70568;51.378;-1.342;2024-03-08T14:58:59;39;38;
61592;PMS5003;70568;51.378;-1.342;2024-03-08T15:01:25;44;43;
61592;PMS5003;70568;51.378;-1.342;2024-03-08T15:03:53;44;43;
61592;PMS5003;70568;51.378;-1.342;2024-03-08T15:06:20;43;42;
61592;PMS5003;70568;51.378;-1.342;2024-03-08T15:08:47;42;40;
61592;PMS5003;70568;51.378;-1.342;2024-03-08T15:11:14;40;38;
61592;PMS5003;70568;51.378;-1.342;2024-03-08T15:13:41;46;46;
61592;PMS5003;70568;51.378;-1.342;2024-03-08T15:16:08;42;41;
61592;PMS5003;70568;51.378;-1.342;2024-03-08T15:18:35;49;47;
61592;PMS5003;70568;51.378;-1.342;2024-03-08T15:21:03;51;49;
61592;PMS5003;70568;51.378;-1.342;2024-03-08T15:23:31;53;48;
61592;PMS5003;70568;51.378;-1.342;2024-03-08T15:25:58;47;44;
61592;PMS5003;70568;51.378;-1.342;2024-03-08T15:28:25;44;42;
61592;PMS5003;70568;51.378;-1.342;2024-03-08T15:30:52;52;49;
61592;PMS5003;70568;51.378;-1.342;2024-03-08T15:33:18;46;45;
61592;PMS5003;70568;51.378;-1.342;2024-03-08T15:35:44;48;46;
61592;PMS5003;70568;51.378;-1.342;2024-03-08T15:38:11;46;43;
61592;PMS5003;70568;51.378;-1.342;2024-03-08T15:40:38;50;49;
61592;PMS5003;70568;51.378;-1.342;2024-03-08T15:43:05;52;49;
61592;PMS5003;70568;51.378;-1.342;2024-03-08T15:45:32;51;47;
61592;PMS5003;70568;51.378;-1.342;2024-03-08T15:47:58;50;48;
61592;PMS5003;70568;51.378;-1.342;2024-03-08T15:50:25;50;47;
61592;PMS5003;70568;51.378;-1.342;2024-03-08T15:52:52;54;54;
61592;PMS5003;70568;51.378;-1.342;2024-03-08T15:55:19;56;55;
61592;PMS5003;70568;51.378;-1.342;2024-03-08T15:57:47;53;52;
61592;PMS5003;70568;51.378;-1.342;2024-03-08T16:00:14;56;52;
61592;PMS5003;70568;51.378;-1.342;2024-03-08T16:02:42;56;51;